Time;durP1;ratioP1;P1;durP2;ratioP2;P2;SDS_P1;SDS_P2;PMS_P1;PMS_P2;Temp;Humidity;BMP_temperature;BMP_pressure;BME280_temperature;BME280_humidity;BME280_pressure;Samples;Min_cycle;Max_cycle;Signal;HPM_P1;HPM_P2
2022/02/27 00:00:48;;;;;;;14.03;6.10;;;;;;;;;;5078056;28;20407;-79
2022/02/27 00:03:14;;;;;;;10.03;6.53;;;;;;;;;;5076583;28;20409;-77
2022/02/27 00:05:40;;;;;;;14.87;6.67;;;;;;;;;;5076763;28;20401;-77
2022/02/27 00:08:06;;;;;;;8.30;5.90;;;;;;;;;;5076880;28;20455;-79
2022/02/27 00:10:32;;;;;;;10.10;5.13;;;;;;;;;;5077894;28;20432;-79
2022/02/27 00:12:58;;;;;;;10.80;5.60;;;;;;;;;;5080637;28;20412;-79
2022/02/27 00:15:24;;;;;;;10.07;6.33;;;;;;;;;;5084001;28;20880;-79
2022/02/27 00:17:51;;;;;;;13.63;6.63;;;;;;;;;;5082314;28;20769;-79
2022/02/27 00:20:17;;;;;;;15.60;6.30;;;;;;;;;;5079592;28;20757;-79
2022/02/27 00:22:43;;;;;;;12.40;7.20;;;;;;;;;;5079076;28;20431;-79
2022/02/27 00:25:09;;;;;;;19.37;8.90;;;;;;;;;;5079433;28;20429;-78
2022/02/27 00:27:36;;;;;;;15.33;8.67;;;;;;;;;;5078946;28;20397;-79
2022/02/27 00:30:03;;;;;;;27.30;14.00;;;;;;;;;;5079786;28;20492;-79
2022/02/27 00:32:29;;;;;;;42.63;19.33;;;;;;;;;;5079102;28;20408;-78
2022/02/27 00:34:55;;;;;;;24.60;13.00;;;;;;;;;;5077644;28;20858;-79
2022/02/27 00:37:21;;;;;;;22.20;10.50;;;;;;;;;;5078662;28;20897;-79
2022/02/27 00:39:47;;;;;;;17.40;8.60;;;;;;;;;;5078591;28;20789;-79
2022/02/27 00:42:13;;;;;;;16.17;7.83;;;;;;;;;;5077365;28;20436;-77
2022/02/27 00:44:40;;;;;;;11.03;7.30;;;;;;;;;;5075930;28;20424;-78
2022/02/27 00:47:06;;;;;;;20.33;9.50;;;;;;;;;;5076489;28;20484;-79
2022/02/27 00:49:32;;;;;;;11.50;8.33;;;;;;;;;;5078624;28;20464;-79
2022/02/27 00:51:58;;;;;;;17.83;8.30;;;;;;;;;;5078739;28;20419;-78
2022/02/27 00:54:24;;;;;;;15.30;7.37;;;;;;;;;;5079471;28;20523;-78
2022/02/27 00:56:50;;;;;;;14.30;6.90;;;;;;;;;;5078309;28;20408;-79
2022/02/27 00:59:16;;;;;;;19.93;6.77;;;;;;;;;;5078724;28;20636;-79
2022/02/27 01:01:42;;;;;;;18.47;6.63;;;;;;;;;;5075784;28;20423;-78
2022/02/27 01:04:08;;;;;;;12.60;6.20;;;;;;;;;;5076715;28;20420;-79
2022/02/27 01:06:34;;;;;;;12.70;6.43;;;;;;;;;;5082362;28;20401;-79
2022/02/27 01:09:00;;;;;;;12.47;6.10;;;;;;;;;;5087535;28;20421;-79
2022/02/27 01:11:27;;;;;;;11.10;5.90;;;;;;;;;;5079233;28;20401;-79
2022/02/27 01:13:54;;;;;;;11.20;5.03;;;;;;;;;;5080811;28;20559;-79
2022/02/27 01:16:20;;;;;;;19.73;6.67;;;;;;;;;;5079611;28;20749;-79
2022/02/27 01:18:46;;;;;;;9.77;5.23;;;;;;;;;;5080153;28;20436;-78
2022/02/27 01:21:15;;;;;;;10.23;5.17;;;;;;;;;;5079273;28;20798;-79
2022/02/27 01:23:41;;;;;;;13.73;5.57;;;;;;;;;;5079764;28;20401;-78
2022/02/27 01:26:07;;;;;;;9.70;5.17;;;;;;;;;;5096853;28;20497;-77
2022/02/27 01:28:33;;;;;;;10.87;5.77;;;;;;;;;;5096933;28;20437;-77
2022/02/27 01:30:59;;;;;;;9.40;5.47;;;;;;;;;;5097630;28;20421;-77
2022/02/27 01:33:25;;;;;;;12.40;5.43;;;;;;;;;;5097215;28;20448;-78
2022/02/27 01:35:51;;;;;;;11.30;5.10;;;;;;;;;;5086716;28;20428;-78
2022/02/27 01:38:17;;;;;;;8.13;4.90;;;;;;;;;;5078966;28;20420;-78
2022/02/27 01:40:43;;;;;;;11.93;4.93;;;;;;;;;;5076793;28;20412;-78
2022/02/27 01:43:09;;;;;;;14.00;5.90;;;;;;;;;;5077687;28;20404;-78
2022/02/27 01:45:35;;;;;;;11.63;5.60;;;;;;;;;;5076376;28;20931;-78
2022/02/27 01:48:02;;;;;;;8.70;4.37;;;;;;;;;;5078101;28;20425;-78
2022/02/27 01:50:28;;;;;;;11.67;4.60;;;;;;;;;;5077638;28;20427;-79
2022/02/27 01:52:54;;;;;;;12.10;5.00;;;;;;;;;;5078064;28;20440;-78
2022/02/27 01:55:20;;;;;;;10.73;5.90;;;;;;;;;;5078372;28;20405;-78
2022/02/27 01:57:46;;;;;;;14.90;5.63;;;;;;;;;;5082484;28;20911;-78
2022/02/27 02:00:14;;;;;;;12.20;5.77;;;;;;;;;;5085803;28;20408;-78
2022/02/27 02:02:40;;;;;;;12.90;5.37;;;;;;;;;;5082117;28;20408;-78
2022/02/27 02:05:06;;;;;;;13.43;4.97;;;;;;;;;;5081501;28;20431;-78
2022/02/27 02:07:32;;;;;;;14.43;5.43;;;;;;;;;;5081559;28;20412;-78
2022/02/27 02:09:58;;;;;;;16.23;8.03;;;;;;;;;;5081494;28;20482;-78
2022/02/27 02:12:24;;;;;;;12.07;5.90;;;;;;;;;;5081607;28;20408;-78
2022/02/27 02:14:50;;;;;;;19.87;7.47;;;;;;;;;;5081570;28;20455;-78
2022/02/27 02:17:16;;;;;;;9.67;6.60;;;;;;;;;;5080176;28;20400;-78
2022/02/27 02:19:42;;;;;;;11.10;5.67;;;;;;;;;;5077947;28;20439;-78
2022/02/27 02:22:08;;;;;;;15.80;5.70;;;;;;;;;;5078033;28;20407;-78
2022/02/27 02:24:35;;;;;;;14.17;5.63;;;;;;;;;;5078303;28;20431;-78
2022/02/27 02:27:01;;;;;;;17.37;5.70;;;;;;;;;;5078143;28;20892;-77
2022/02/27 02:29:27;;;;;;;18.43;7.67;;;;;;;;;;5077863;28;20420;-77
2022/02/27 02:31:54;;;;;;;10.00;5.70;;;;;;;;;;5077804;28;20416;-77
2022/02/27 02:34:21;;;;;;;6.77;5.20;;;;;;;;;;5083305;28;20448;-77
2022/02/27 02:36:48;;;;;;;16.90;6.83;;;;;;;;;;5084083;28;20409;-79
2022/02/27 02:39:15;;;;;;;11.30;5.27;;;;;;;;;;5091333;28;20500;-77
2022/02/27 02:41:41;;;;;;;13.57;5.80;;;;;;;;;;5076152;28;20416;-78
2022/02/27 02:44:08;;;;;;;14.37;6.87;;;;;;;;;;5079138;28;20412;-77
2022/02/27 02:46:37;;;;;;;20.10;5.97;;;;;;;;;;5077326;28;20413;-78
2022/02/27 02:49:07;;;;;;;7.10;5.90;;;;;;;;;;5078959;28;20431;-79
2022/02/27 02:51:33;;;;;;;13.50;6.40;;;;;;;;;;5078521;28;20789;-78
2022/02/27 02:53:59;;;;;;;7.97;6.07;;;;;;;;;;5077025;28;20502;-77
2022/02/27 02:56:25;;;;;;;8.30;5.60;;;;;;;;;;5071755;28;20540;-77
2022/02/27 02:58:51;;;;;;;12.33;6.20;;;;;;;;;;5062922;28;20432;-77
2022/02/27 03:01:18;;;;;;;9.57;5.63;;;;;;;;;;5077835;28;20397;-78
2022/02/27 03:03:45;;;;;;;10.60;6.30;;;;;;;;;;5077538;28;20468;-78
2022/02/27 03:06:11;;;;;;;14.07;6.23;;;;;;;;;;5077801;28;20767;-79
2022/02/27 03:08:38;;;;;;;10.87;6.17;;;;;;;;;;5079228;28;20425;-78
2022/02/27 03:11:04;;;;;;;7.73;6.50;;;;;;;;;;5082402;28;20407;-79
2022/02/27 03:13:30;;;;;;;15.37;6.10;;;;;;;;;;5088277;28;20881;-79
2022/02/27 03:15:56;;;;;;;9.50;5.47;;;;;;;;;;5087243;28;20411;-79
2022/02/27 03:18:23;;;;;;;13.27;6.93;;;;;;;;;;5079883;28;20467;-79
2022/02/27 03:20:49;;;;;;;11.77;6.53;;;;;;;;;;5079620;28;20888;-79
2022/02/27 03:23:15;;;;;;;8.37;5.13;;;;;;;;;;5079966;28;20415;-79
2022/02/27 03:25:41;;;;;;;8.90;6.80;;;;;;;;;;5079935;28;20415;-79
2022/02/27 03:28:07;;;;;;;9.70;5.53;;;;;;;;;;5079888;28;20513;-79
2022/02/27 03:30:36;;;;;;;8.37;5.23;;;;;;;;;;5079840;28;20409;-79
2022/02/27 03:33:02;;;;;;;13.30;6.73;;;;;;;;;;5078453;28;20413;-79
2022/02/27 03:35:29;;;;;;;13.17;5.73;;;;;;;;;;5077458;28;20408;-79
2022/02/27 03:37:55;;;;;;;18.50;7.03;;;;;;;;;;5077513;28;20429;-79
2022/02/27 03:40:21;;;;;;;7.53;5.73;;;;;;;;;;5079338;28;20400;-79
2022/02/27 03:42:47;;;;;;;18.40;7.07;;;;;;;;;;5079083;28;20431;-79
2022/02/27 03:45:14;;;;;;;9.90;5.47;;;;;;;;;;5079615;28;20397;-79
2022/02/27 03:47:42;;;;;;;8.17;4.90;;;;;;;;;;5080089;28;20404;-79
2022/02/27 03:50:09;;;;;;;13.70;7.13;;;;;;;;;;5079173;28;20408;-78
2022/02/27 03:52:35;;;;;;;14.27;5.57;;;;;;;;;;5079002;28;20848;-78
2022/02/27 03:55:05;;;;;;;9.67;5.80;;;;;;;;;;5078561;28;20490;-78
2022/02/27 03:57:31;;;;;;;19.63;6.37;;;;;;;;;;5078198;28;20416;-78
2022/02/27 03:59:57;;;;;;;9.17;5.30;;;;;;;;;;5079340;28;20413;-78
2022/02/27 04:02:23;;;;;;;16.67;7.17;;;;;;;;;;5079446;28;20428;-78
2022/02/27 04:04:50;;;;;;;9.80;5.80;;;;;;;;;;5079213;28;20411;-78
2022/02/27 04:07:16;;;;;;;9.87;5.97;;;;;;;;;;5079207;28;20545;-78
2022/02/27 04:09:42;;;;;;;10.67;5.83;;;;;;;;;;5079119;28;20428;-78
2022/02/27 04:12:08;;;;;;;10.53;6.53;;;;;;;;;;5079543;28;20409;-78
2022/02/27 04:14:34;;;;;;;10.27;6.00;;;;;;;;;;5085595;28;20465;-78
2022/02/27 04:17:00;;;;;;;9.33;6.20;;;;;;;;;;5079162;28;20427;-78
2022/02/27 04:19:26;;;;;;;11.07;6.87;;;;;;;;;;5079229;28;20464;-78
2022/02/27 04:21:52;;;;;;;13.13;5.40;;;;;;;;;;5079204;28;20412;-78
2022/02/27 04:24:19;;;;;;;10.60;6.23;;;;;;;;;;5079201;28;20405;-78
2022/02/27 04:26:45;;;;;;;11.13;5.77;;;;;;;;;;5079328;28;20420;-78
2022/02/27 04:29:11;;;;;;;15.77;6.43;;;;;;;;;;5059806;28;20453;-78
2022/02/27 04:31:37;;;;;;;13.00;6.27;;;;;;;;;;5059004;28;20440;-78
2022/02/27 04:34:04;;;;;;;10.40;6.00;;;;;;;;;;5055942;28;20457;-78
2022/02/27 04:36:30;;;;;;;13.20;7.13;;;;;;;;;;5058435;28;20902;-78
2022/02/27 04:38:56;;;;;;;12.23;6.37;;;;;;;;;;5059359;28;20457;-78
2022/02/27 04:41:22;;;;;;;14.57;7.50;;;;;;;;;;5058408;28;20412;-78
2022/02/27 04:43:49;;;;;;;10.20;5.60;;;;;;;;;;5058592;28;20409;-78
2022/02/27 04:46:15;;;;;;;13.70;7.70;;;;;;;;;;5059056;28;20456;-78
2022/02/27 04:48:41;;;;;;;15.40;8.33;;;;;;;;;;5057273;28;20445;-78
2022/02/27 04:51:07;;;;;;;20.17;8.80;;;;;;;;;;5057233;28;20435;-78
2022/02/27 04:53:34;;;;;;;19.00;10.77;;;;;;;;;;5058725;28;20511;-78
2022/02/27 04:56:00;;;;;;;18.70;8.90;;;;;;;;;;5058978;28;20417;-78
2022/02/27 04:58:26;;;;;;;16.97;7.23;;;;;;;;;;5057789;28;20425;-78
2022/02/27 05:00:52;;;;;;;10.10;6.80;;;;;;;;;;5057037;28;20420;-78
2022/02/27 05:03:18;;;;;;;9.50;6.33;;;;;;;;;;5057373;28;20405;-78
2022/02/27 05:05:44;;;;;;;9.63;6.63;;;;;;;;;;5057423;28;20764;-79
2022/02/27 05:08:10;;;;;;;15.23;6.67;;;;;;;;;;5055799;28;20425;-79
2022/02/27 05:10:36;;;;;;;10.30;6.33;;;;;;;;;;5057365;28;20417;-78
2022/02/27 05:13:03;;;;;;;8.20;5.40;;;;;;;;;;5057669;28;20428;-78
2022/02/27 05:15:29;;;;;;;13.00;6.10;;;;;;;;;;5057323;28;20465;-78
2022/02/27 05:17:55;;;;;;;13.77;6.03;;;;;;;;;;5057140;28;20937;-78
2022/02/27 05:20:21;;;;;;;9.27;6.70;;;;;;;;;;5073461;22;20527;-77
2022/02/27 05:22:48;;;;;;;12.10;7.33;;;;;;;;;;5051525;28;20440;-76
2022/02/27 05:25:19;;;;;;;9.13;5.83;;;;;;;;;;5053176;28;20805;-77
2022/02/27 05:27:49;;;;;;;13.03;7.00;;;;;;;;;;5053068;28;20814;-76
2022/02/27 05:30:15;;;;;;;13.07;6.20;;;;;;;;;;5053264;28;20572;-76
2022/02/27 05:32:41;;;;;;;13.93;7.20;;;;;;;;;;5052445;28;20466;-76
2022/02/27 05:35:07;;;;;;;12.30;7.83;;;;;;;;;;5053111;28;20448;-76
2022/02/27 05:37:34;;;;;;;20.07;8.07;;;;;;;;;;5052911;28;20413;-76
2022/02/27 05:40:00;;;;;;;15.50;7.47;;;;;;;;;;5053074;28;20418;-76
2022/02/27 05:42:26;;;;;;;10.70;7.03;;;;;;;;;;5053026;28;20394;-76
2022/02/27 05:44:52;;;;;;;11.60;6.30;;;;;;;;;;5052913;28;20413;-76
2022/02/27 05:47:18;;;;;;;15.10;6.90;;;;;;;;;;5053216;28;20844;-75
2022/02/27 05:49:44;;;;;;;12.63;7.03;;;;;;;;;;5052712;28;20447;-75
2022/02/27 05:52:11;;;;;;;15.33;7.17;;;;;;;;;;5052774;28;20402;-75
2022/02/27 05:54:37;;;;;;;12.10;6.43;;;;;;;;;;5052560;28;20948;-75
2022/02/27 05:57:03;;;;;;;11.70;8.40;;;;;;;;;;5052550;28;20405;-75
2022/02/27 05:59:29;;;;;;;18.07;7.43;;;;;;;;;;5052512;28;20414;-75
2022/02/27 06:01:55;;;;;;;10.53;6.33;;;;;;;;;;5052490;28;20402;-76
2022/02/27 06:04:22;;;;;;;10.73;7.33;;;;;;;;;;5052499;28;20428;-75
2022/02/27 06:06:48;;;;;;;14.80;7.10;;;;;;;;;;5051133;28;20472;-76
2022/02/27 06:09:14;;;;;;;13.70;7.07;;;;;;;;;;5052331;28;21013;-75
2022/02/27 06:11:40;;;;;;;10.77;6.30;;;;;;;;;;5052588;28;20394;-76
2022/02/27 06:14:07;;;;;;;10.10;5.93;;;;;;;;;;5052662;28;20587;-76
2022/02/27 06:16:33;;;;;;;9.33;6.37;;;;;;;;;;5052880;28;20898;-75
2022/02/27 06:18:59;;;;;;;13.67;7.27;;;;;;;;;;5052293;28;20429;-75
2022/02/27 06:21:26;;;;;;;10.83;6.80;;;;;;;;;;5052386;28;20516;-75
2022/02/27 06:23:52;;;;;;;10.80;7.00;;;;;;;;;;5052763;28;20445;-75
2022/02/27 06:26:18;;;;;;;9.97;6.50;;;;;;;;;;5052366;28;20428;-75
2022/02/27 06:28:44;;;;;;;13.33;6.53;;;;;;;;;;5052311;28;20944;-75
2022/02/27 06:31:10;;;;;;;13.93;6.80;;;;;;;;;;5052292;28;20397;-75
2022/02/27 06:33:36;;;;;;;9.73;6.53;;;;;;;;;;5050911;28;20448;-75
2022/02/27 06:36:02;;;;;;;10.10;6.30;;;;;;;;;;5052544;28;20401;-75
2022/02/27 06:38:28;;;;;;;12.60;6.43;;;;;;;;;;5050893;28;20406;-75
2022/02/27 06:40:55;;;;;;;14.47;7.00;;;;;;;;;;5052322;28;20806;-75
2022/02/27 06:43:21;;;;;;;14.60;7.03;;;;;;;;;;5052859;28;20398;-75
2022/02/27 06:45:47;;;;;;;15.13;6.60;;;;;;;;;;5056444;28;20436;-75
2022/02/27 06:48:14;;;;;;;8.90;6.90;;;;;;;;;;5055786;28;20402;-75
2022/02/27 06:50:40;;;;;;;16.77;7.53;;;;;;;;;;5055976;28;20554;-74
2022/02/27 06:53:06;;;;;;;18.20;7.30;;;;;;;;;;5055895;28;20402;-75
2022/02/27 06:55:32;;;;;;;13.60;7.13;;;;;;;;;;5055733;28;20398;-75
2022/02/27 06:57:58;;;;;;;13.43;7.00;;;;;;;;;;5055691;28;20746;-75
2022/02/27 07:00:24;;;;;;;15.33;8.07;;;;;;;;;;5055595;28;20505;-75
2022/02/27 07:02:50;;;;;;;17.27;7.53;;;;;;;;;;5055662;28;20428;-75
2022/02/27 07:05:16;;;;;;;10.67;7.80;;;;;;;;;;5055510;28;20415;-75
2022/02/27 07:07:42;;;;;;;17.03;8.53;;;;;;;;;;5055688;28;20414;-75
2022/02/27 07:10:09;;;;;;;17.03;9.00;;;;;;;;;;5055474;28;20425;-75
2022/02/27 07:12:36;;;;;;;16.33;8.80;;;;;;;;;;5055967;28;20405;-75
2022/02/27 07:15:03;;;;;;;14.13;8.73;;;;;;;;;;5055615;28;20442;-75
2022/02/27 07:17:29;;;;;;;14.33;7.60;;;;;;;;;;5055460;28;20398;-75
2022/02/27 07:19:55;;;;;;;17.03;9.17;;;;;;;;;;5055402;28;20447;-75
2022/02/27 07:22:21;;;;;;;20.00;11.23;;;;;;;;;;5055187;28;20402;-76
2022/02/27 07:24:47;;;;;;;13.33;9.13;;;;;;;;;;5055078;28;20397;-75
2022/02/27 07:27:14;;;;;;;26.10;10.07;;;;;;;;;;5055148;28;20394;-75
2022/02/27 07:29:40;;;;;;;17.90;8.97;;;;;;;;;;5054827;28;20962;-75
2022/02/27 07:32:08;;;;;;;15.00;9.50;;;;;;;;;;5053600;28;20409;-75
2022/02/27 07:34:34;;;;;;;12.60;8.77;;;;;;;;;;5053641;28;20817;-75
2022/02/27 07:37:00;;;;;;;12.30;7.77;;;;;;;;;;5054866;28;20406;-75
2022/02/27 07:39:27;;;;;;;16.50;9.47;;;;;;;;;;5054818;28;20421;-75
2022/02/27 07:41:54;;;;;;;13.20;8.90;;;;;;;;;;5055076;28;20779;-75
2022/02/27 07:44:20;;;;;;;14.70;9.30;;;;;;;;;;5055077;28;20405;-75
2022/02/27 07:46:49;;;;;;;12.93;8.47;;;;;;;;;;5054606;28;20405;-75
2022/02/27 07:49:15;;;;;;;14.80;9.47;;;;;;;;;;5054499;28;20503;-75
2022/02/27 07:51:42;;;;;;;11.03;7.97;;;;;;;;;;5054847;28;20497;-76
2022/02/27 07:54:08;;;;;;;14.43;8.80;;;;;;;;;;5054504;28;20508;-75
2022/02/27 07:56:34;;;;;;;11.93;7.60;;;;;;;;;;5053956;28;20398;-75
2022/02/27 07:59:00;;;;;;;18.90;8.77;;;;;;;;;;5054492;28;20802;-75
2022/02/27 08:01:29;;;;;;;15.57;8.70;;;;;;;;;;5054475;28;20424;-75
2022/02/27 08:03:55;;;;;;;13.87;8.40;;;;;;;;;;5054703;28;20477;-76
2022/02/27 08:06:21;;;;;;;13.77;9.67;;;;;;;;;;5053088;28;20405;-75
2022/02/27 08:08:47;;;;;;;13.90;8.07;;;;;;;;;;5054413;28;20434;-75
2022/02/27 08:11:13;;;;;;;16.50;8.20;;;;;;;;;;5054163;28;20901;-75
2022/02/27 08:13:39;;;;;;;11.63;7.50;;;;;;;;;;5054113;28;20444;-75
2022/02/27 08:16:05;;;;;;;15.07;9.20;;;;;;;;;;5052787;28;20555;-76
2022/02/27 08:18:32;;;;;;;11.37;8.10;;;;;;;;;;5053781;28;20855;-75
2022/02/27 08:20:59;;;;;;;14.30;9.20;;;;;;;;;;5054100;28;20743;-75
2022/02/27 08:23:25;;;;;;;15.13;8.50;;;;;;;;;;5053878;28;20402;-76
2022/02/27 08:25:54;;;;;;;14.57;8.67;;;;;;;;;;5054032;28;20405;-75
2022/02/27 08:28:21;;;;;;;16.30;9.30;;;;;;;;;;5054048;28;20406;-75
2022/02/27 08:30:48;;;;;;;12.00;7.17;;;;;;;;;;5052587;28;20435;-76
2022/02/27 08:33:14;;;;;;;11.73;9.17;;;;;;;;;;5053537;28;20769;-75
2022/02/27 08:35:40;;;;;;;13.70;8.07;;;;;;;;;;5052429;28;20531;-75
2022/02/27 08:38:06;;;;;;;15.33;7.47;;;;;;;;;;5053888;28;20917;-76
2022/02/27 08:40:32;;;;;;;11.97;8.00;;;;;;;;;;5053779;28;20496;-76
2022/02/27 08:42:59;;;;;;;10.27;7.50;;;;;;;;;;5053767;28;20735;-76
2022/02/27 08:45:26;;;;;;;10.03;7.10;;;;;;;;;;5053826;28;20433;-75
2022/02/27 08:47:52;;;;;;;13.00;7.10;;;;;;;;;;5042307;28;20532;-75
2022/02/27 08:50:18;;;;;;;10.97;7.67;;;;;;;;;;5033168;28;20525;-76
2022/02/27 08:52:44;;;;;;;10.20;6.40;;;;;;;;;;5032342;28;20417;-75
2022/02/27 08:55:11;;;;;;;13.13;7.43;;;;;;;;;;5033256;28;20532;-75
2022/02/27 08:57:37;;;;;;;10.20;6.50;;;;;;;;;;5033091;28;20410;-76
2022/02/27 09:00:04;;;;;;;9.20;5.97;;;;;;;;;;5032828;28;20414;-75
2022/02/27 09:02:30;;;;;;;8.03;5.20;;;;;;;;;;5033276;28;20394;-76
2022/02/27 09:04:56;;;;;;;9.77;6.00;;;;;;;;;;5028956;28;20494;-76
2022/02/27 09:07:22;;;;;;;8.70;5.10;;;;;;;;;;5022583;28;20407;-75
2022/02/27 09:09:48;;;;;;;8.27;5.77;;;;;;;;;;5013695;28;20514;-76
2022/02/27 09:12:14;;;;;;;10.17;6.50;;;;;;;;;;5029309;28;20405;-76
2022/02/27 09:14:42;;;;;;;8.50;5.97;;;;;;;;;;5032770;28;21016;-76
2022/02/27 09:17:09;;;;;;;7.33;5.70;;;;;;;;;;5020533;28;20936;-76
2022/02/27 09:19:35;;;;;;;8.63;5.60;;;;;;;;;;5022236;28;20967;-76
2022/02/27 09:22:01;;;;;;;8.10;5.63;;;;;;;;;;5019247;28;20691;-77
2022/02/27 09:24:27;;;;;;;10.00;5.60;;;;;;;;;;5024030;28;20446;-76
2022/02/27 09:26:53;;;;;;;9.83;5.33;;;;;;;;;;5025152;28;20419;-77
2022/02/27 09:29:19;;;;;;;8.60;5.87;;;;;;;;;;5025001;28;20450;-76
2022/02/27 09:31:45;;;;;;;6.83;4.63;;;;;;;;;;5025510;28;20402;-75
2022/02/27 09:34:12;;;;;;;10.53;4.20;;;;;;;;;;5025020;28;20446;-75
2022/02/27 09:36:38;;;;;;;8.73;4.83;;;;;;;;;;5025562;28;20458;-75
2022/02/27 09:39:04;;;;;;;8.10;4.73;;;;;;;;;;5032693;28;20419;-75
2022/02/27 09:41:30;;;;;;;8.83;4.67;;;;;;;;;;5033067;28;20391;-75
2022/02/27 09:44:01;;;;;;;4.80;3.97;;;;;;;;;;5032725;28;20537;-75
2022/02/27 09:46:27;;;;;;;6.33;3.87;;;;;;;;;;5032797;28;20386;-75
2022/02/27 09:48:54;;;;;;;5.27;3.70;;;;;;;;;;5033167;28;20926;-75
2022/02/27 09:51:20;;;;;;;8.10;4.70;;;;;;;;;;5032872;28;20402;-76
2022/02/27 09:53:46;;;;;;;8.90;4.50;;;;;;;;;;5032870;28;20849;-75
2022/02/27 09:56:13;;;;;;;8.30;4.87;;;;;;;;;;5048308;28;20490;-76
2022/02/27 09:58:39;;;;;;;7.00;4.50;;;;;;;;;;5032710;28;20405;-76
2022/02/27 10:01:06;;;;;;;6.83;4.00;;;;;;;;;;5032949;28;20426;-76
2022/02/27 10:03:33;;;;;;;5.77;4.27;;;;;;;;;;5032815;28;20394;-76
2022/02/27 10:06:03;;;;;;;6.10;4.33;;;;;;;;;;5032904;28;20481;-76
2022/02/27 10:08:49;;;;;;;11.00;3.93;;;;;;;;;;5032741;28;20395;-76
2022/02/27 10:11:17;;;;;;;8.37;4.80;;;;;;;;;;5032581;28;20410;-76
2022/02/27 10:13:45;;;;;;;7.30;5.17;;;;;;;;;;5033066;28;20996;-76
2022/02/27 10:16:14;;;;;;;7.30;5.30;;;;;;;;;;5032865;28;20486;-76
2022/02/27 10:18:45;;;;;;;12.30;5.50;;;;;;;;;;5033490;28;20411;-76
2022/02/27 10:21:20;;;;;;;9.53;5.20;;;;;;;;;;5036718;28;20414;-75
2022/02/27 10:23:58;;;;;;;8.10;5.70;;;;;;;;;;5036490;28;20489;-76
2022/02/27 10:26:25;;;;;;;10.27;6.30;;;;;;;;;;5036261;28;20444;-76
2022/02/27 10:29:10;;;;;;;8.70;6.07;;;;;;;;;;5036156;28;20426;-76
2022/02/27 10:31:36;;;;;;;9.07;5.77;;;;;;;;;;5036467;28;20405;-75
2022/02/27 10:34:21;;;;;;;9.30;6.03;;;;;;;;;;5036027;28;20450;-76
2022/02/27 10:37:05;;;;;;;7.27;5.70;;;;;;;;;;5036461;28;20404;-76
2022/02/27 10:39:32;;;;;;;6.57;5.77;;;;;;;;;;5036065;28;20998;-76
2022/02/27 10:42:11;;;;;;;11.60;6.27;;;;;;;;;;5036095;28;20394;-76
2022/02/27 10:44:37;;;;;;;7.57;5.87;;;;;;;;;;5036132;28;20452;-76
2022/02/27 10:47:09;;;;;;;8.17;6.47;;;;;;;;;;5051644;28;20430;-76
2022/02/27 10:49:36;;;;;;;8.30;5.50;;;;;;;;;;5036334;28;20481;-76
2022/02/27 10:52:11;;;;;;;6.50;5.67;;;;;;;;;;5051012;28;20410;-76
2022/02/27 10:54:41;;;;;;;7.80;5.53;;;;;;;;;;5035829;28;20528;-76
2022/02/27 10:57:10;;;;;;;7.03;6.17;;;;;;;;;;5036619;28;20407;-76
2022/02/27 10:59:39;;;;;;;9.10;6.17;;;;;;;;;;5052174;28;20430;-76
2022/02/27 11:02:05;;;;;;;7.00;5.53;;;;;;;;;;5036226;28;20403;-76
2022/02/27 11:04:32;;;;;;;10.57;7.10;;;;;;;;;;5036072;28;20472;-77
2022/02/27 11:06:58;;;;;;;9.83;6.77;;;;;;;;;;5035763;28;20501;-76
2022/02/27 11:09:24;;;;;;;7.43;5.50;;;;;;;;;;5036215;28;20461;-77
2022/02/27 11:11:51;;;;;;;8.80;5.57;;;;;;;;;;5036373;28;20415;-77
2022/02/27 11:14:17;;;;;;;7.73;5.57;;;;;;;;;;5035935;28;20575;-76
2022/02/27 11:16:43;;;;;;;7.73;5.40;;;;;;;;;;5036428;28;20413;-78
2022/02/27 11:19:09;;;;;;;7.50;5.43;;;;;;;;;;5059506;22;20435;-80
2022/02/27 11:21:36;;;;;;;8.40;6.23;;;;;;;;;;5036345;28;20442;-80
2022/02/27 11:24:02;;;;;;;6.30;5.60;;;;;;;;;;5037595;28;20423;-80
2022/02/27 11:26:29;;;;;;;8.53;5.90;;;;;;;;;;5021459;28;20761;-80
2022/02/27 11:28:55;;;;;;;9.23;6.40;;;;;;;;;;5020324;28;20403;-80
2022/02/27 11:31:21;;;;;;;10.03;5.67;;;;;;;;;;5019184;28;20478;-79
2022/02/27 11:33:48;;;;;;;6.87;5.40;;;;;;;;;;5018923;28;20510;-80
2022/02/27 11:36:23;;;;;;;11.47;4.60;;;;;;;;;;5020100;28;20411;-80
2022/02/27 11:39:04;;;;;;;10.37;5.80;;;;;;;;;;5019625;28;20407;-79
2022/02/27 11:41:47;;;;;;;8.03;4.87;;;;;;;;;;5019333;28;20404;-80
2022/02/27 11:44:13;;;;;;;9.67;5.53;;;;;;;;;;5020335;28;20399;-80
2022/02/27 11:46:41;;;;;;;7.33;6.33;;;;;;;;;;5020286;28;20408;-80
2022/02/27 11:49:11;;;;;;;12.17;5.67;;;;;;;;;;5020229;28;20562;-79
2022/02/27 11:51:37;;;;;;;8.53;5.40;;;;;;;;;;5022458;28;20403;-80
2022/02/27 11:54:11;;;;;;;6.10;5.17;;;;;;;;;;5020545;28;20473;-79
2022/02/27 11:56:38;;;;;;;5.70;4.73;;;;;;;;;;5020131;28;20431;-79
2022/02/27 11:59:04;;;;;;;9.13;4.67;;;;;;;;;;5019797;28;20396;-79
2022/02/27 12:01:37;;;;;;;7.50;4.77;;;;;;;;;;5019785;28;20403;-79
2022/02/27 12:04:22;;;;;;;7.20;5.87;;;;;;;;;;5018845;28;20407;-79
2022/02/27 12:07:07;;;;;;;7.00;5.10;;;;;;;;;;5020072;28;20415;-80
2022/02/27 12:09:45;;;;;;;6.90;5.67;;;;;;;;;;5020030;28;20469;-80
2022/02/27 12:12:30;;;;;;;7.43;5.50;;;;;;;;;;5019144;28;20400;-79
2022/02/27 12:15:16;;;;;;;7.83;5.83;;;;;;;;;;5018818;28;20881;-79
2022/02/27 12:17:53;;;;;;;7.43;6.00;;;;;;;;;;5020102;28;20449;-79
2022/02/27 12:20:37;;;;;;;9.30;6.53;;;;;;;;;;5019362;28;20443;-79
2022/02/27 12:23:04;;;;;;;8.43;5.60;;;;;;;;;;5019588;28;20418;-80
2022/02/27 12:25:37;;;;;;;7.33;5.23;;;;;;;;;;5019273;28;20399;-80
2022/02/27 12:28:03;;;;;;;7.13;5.47;;;;;;;;;;5018859;28;20400;-79
2022/02/27 12:30:29;;;;;;;7.03;5.27;;;;;;;;;;5018082;28;20809;-79
2022/02/27 12:33:01;;;;;;;7.37;5.30;;;;;;;;;;5018747;28;20411;-80
2022/02/27 12:35:28;;;;;;;8.50;5.27;;;;;;;;;;5019279;28;20470;-79
2022/02/27 12:37:54;;;;;;;9.83;5.90;;;;;;;;;;5017302;28;20424;-80
2022/02/27 12:40:20;;;;;;;9.83;6.57;;;;;;;;;;5019070;28;20510;-78
2022/02/27 12:42:47;;;;;;;7.07;5.23;;;;;;;;;;5018828;28;20779;-81
2022/02/27 12:45:13;;;;;;;9.23;6.43;;;;;;;;;;5017336;28;20415;-79
2022/02/27 12:47:39;;;;;;;8.47;6.03;;;;;;;;;;5017336;28;20997;-79
2022/02/27 12:50:38;;;;;;;9.10;5.90;;;;;;;;;;5018936;28;20427;-79
2022/02/27 12:52:57;;;;;;;8.80;5.80;;;;;;;;;;5018476;28;20419;-80
2022/02/27 12:55:24;;;;;;;7.40;5.97;;;;;;;;;;5017410;28;20490;-80
2022/02/27 12:57:51;;;;;;;6.40;4.90;;;;;;;;;;5017782;28;20415;-81
2022/02/27 13:00:19;;;;;;;7.27;5.77;;;;;;;;;;5018811;28;20430;-82
2022/02/27 13:02:45;;;;;;;11.27;7.30;;;;;;;;;;5018529;28;20812;-80
2022/02/27 13:05:12;;;;;;;10.20;6.50;;;;;;;;;;5018411;28;20899;-80
2022/02/27 13:07:39;;;;;;;9.87;6.23;;;;;;;;;;5017697;28;20422;-80
2022/02/27 13:10:05;;;;;;;10.93;6.20;;;;;;;;;;5016684;28;20527;-81
2022/02/27 13:12:31;;;;;;;8.50;6.47;;;;;;;;;;5016562;28;20495;-80
2022/02/27 13:14:59;;;;;;;8.00;6.20;;;;;;;;;;5017613;28;20458;-81
2022/02/27 13:17:29;;;;;;;9.67;7.03;;;;;;;;;;5019064;28;20407;-80
2022/02/27 13:19:57;;;;;;;9.03;7.33;;;;;;;;;;5018383;28;20430;-80
2022/02/27 13:22:24;;;;;;;10.90;6.77;;;;;;;;;;5016990;28;20519;-78
2022/02/27 13:24:50;;;;;;;9.30;6.50;;;;;;;;;;5018638;28;20407;-81
2022/02/27 13:27:23;;;;;;;11.00;7.70;;;;;;;;;;5018694;28;20462;-81
2022/02/27 13:29:50;;;;;;;11.80;7.00;;;;;;;;;;5018642;28;20470;-81
2022/02/27 13:32:18;;;;;;;10.97;7.27;;;;;;;;;;5020891;28;20403;-79
2022/02/27 13:34:44;;;;;;;8.80;6.50;;;;;;;;;;5017949;28;20451;-77
2022/02/27 13:37:10;;;;;;;9.57;7.10;;;;;;;;;;5014598;28;20410;-78
2022/02/27 13:39:36;;;;;;;11.60;6.70;;;;;;;;;;5019862;28;20416;-79
2022/02/27 13:42:03;;;;;;;11.60;7.50;;;;;;;;;;5021045;28;20403;-80
2022/02/27 13:44:30;;;;;;;10.77;6.33;;;;;;;;;;5018496;28;20507;-79
2022/02/27 13:46:56;;;;;;;9.27;6.50;;;;;;;;;;5020099;28;20887;-80
2022/02/27 13:49:22;;;;;;;10.73;6.47;;;;;;;;;;5022936;28;20435;-80
2022/02/27 13:51:48;;;;;;;11.17;6.87;;;;;;;;;;5021515;28;20431;-79
2022/02/27 13:54:19;;;;;;;8.00;6.73;;;;;;;;;;5020566;28;20465;-79
2022/02/27 13:57:00;;;;;;;11.20;6.97;;;;;;;;;;5024410;28;20560;-80
2022/02/27 13:59:27;;;;;;;8.77;6.07;;;;;;;;;;5023735;28;21001;-79
2022/02/27 14:01:59;;;;;;;8.33;6.23;;;;;;;;;;5023861;28;20407;-79
2022/02/27 14:04:25;;;;;;;10.00;6.73;;;;;;;;;;5021916;28;20415;-80
2022/02/27 14:06:52;;;;;;;9.47;6.77;;;;;;;;;;5021828;28;20462;-80
2022/02/27 14:09:18;;;;;;;9.10;6.40;;;;;;;;;;5023469;28;20915;-80
2022/02/27 14:11:44;;;;;;;10.03;7.87;;;;;;;;;;5024959;28;20427;-79
2022/02/27 14:14:10;;;;;;;8.60;5.80;;;;;;;;;;5025342;28;20458;-80
2022/02/27 14:16:37;;;;;;;10.70;7.33;;;;;;;;;;5031470;28;20491;-80
2022/02/27 14:19:29;;;;;;;11.47;6.33;;;;;;;;;;5027787;28;20442;-80
2022/02/27 14:21:56;;;;;;;8.30;6.60;;;;;;;;;;5021952;28;20800;-79
2022/02/27 14:24:22;;;;;;;11.63;7.70;;;;;;;;;;5022321;28;20415;-80
2022/02/27 14:26:59;;;;;;;8.70;6.47;;;;;;;;;;5021800;28;20771;-81
2022/02/27 14:29:33;;;;;;;12.60;7.33;;;;;;;;;;5021542;28;21011;-80
2022/02/27 14:31:59;;;;;;;11.43;7.17;;;;;;;;;;5021582;28;20387;-80
2022/02/27 14:34:26;;;;;;;8.30;6.20;;;;;;;;;;5020558;28;20546;-80
2022/02/27 14:36:52;;;;;;;8.67;6.53;;;;;;;;;;5021186;28;20494;-80